createdAt,value
2023-03-16T00:03:21.500Z,4.03
2023-03-16T00:08:24.718Z,4.00
2023-03-16T00:13:27.884Z,3.70
2023-03-16T00:18:39.428Z,4.10
2023-03-16T00:23:42.715Z,4.07
2023-03-16T00:28:45.921Z,4.13
2023-03-16T00:33:51.047Z,4.23
2023-03-16T00:38:54.259Z,4.00
2023-03-16T00:43:57.454Z,4.00
2023-03-16T00:49:04.880Z,4.23
2023-03-16T00:54:08.033Z,4.30
2023-03-16T00:59:13.144Z,3.77
2023-03-16T01:04:19.107Z,3.80
2023-03-16T01:09:22.521Z,4.43
2023-03-16T01:14:27.631Z,4.00
2023-03-16T01:19:34.276Z,3.53
2023-03-16T01:24:38.462Z,4.70
2023-03-16T01:29:44.466Z,3.97
2023-03-16T01:34:49.496Z,3.67
2023-03-16T01:39:53.452Z,3.93
2023-03-16T01:45:01.782Z,3.87
2023-03-16T01:50:11.299Z,3.93
2023-03-16T01:55:16.640Z,4.33
2023-03-16T02:00:23.903Z,4.40
2023-03-16T02:05:44.276Z,4.17
2023-03-16T02:10:54.740Z,4.23
2023-03-16T02:16:00.253Z,3.90
2023-03-16T02:21:16.991Z,3.83
2023-03-16T02:26:25.783Z,3.73
2023-03-16T02:31:31.642Z,3.67
2023-03-16T02:36:35.799Z,3.37
2023-03-16T02:41:39.869Z,3.63
2023-03-16T02:46:49.129Z,3.43
2023-03-16T02:51:52.680Z,3.60
2023-03-16T02:56:56.513Z,3.50
2023-03-16T03:02:02.537Z,3.63
2023-03-16T03:07:05.746Z,3.73
2023-03-16T03:12:21.724Z,3.87
2023-03-16T03:17:30.475Z,3.60
2023-03-16T03:22:35.024Z,3.47
2023-03-16T03:27:38.740Z,3.20
2023-03-16T03:32:48.874Z,3.50
2023-03-16T03:37:54.630Z,3.33
2023-03-16T03:43:01.576Z,3.70
2023-03-16T03:48:08.060Z,3.40
2023-03-16T03:53:11.287Z,3.00
2023-03-16T03:58:34.330Z,2.93
2023-03-16T04:03:38.954Z,3.23
2023-03-16T04:08:43.849Z,2.53
2023-03-16T04:13:53.507Z,2.70
2023-03-16T04:18:59.200Z,2.87
2023-03-16T04:24:05.285Z,2.90
2023-03-16T04:29:12.028Z,2.70
2023-03-16T04:34:16.788Z,3.20
2023-03-16T04:39:20.058Z,3.50
2023-03-16T04:44:25.923Z,3.13
2023-03-16T04:49:30.920Z,3.30
2023-03-16T04:54:35.291Z,3.63
2023-03-16T04:59:39.584Z,3.10
2023-03-16T05:04:55.211Z,3.60
2023-03-16T05:09:58.503Z,3.63
2023-03-16T05:15:01.809Z,3.40
2023-03-16T05:20:26.058Z,3.40
2023-03-16T05:25:33.600Z,3.43
2023-03-16T05:30:40.262Z,3.33
2023-03-16T05:35:50.862Z,3.23
2023-03-16T05:40:54.960Z,3.63
2023-03-16T05:46:33.851Z,3.67
2023-03-16T05:51:40.927Z,3.50
2023-03-16T05:56:45.229Z,3.67
2023-03-16T06:01:50.226Z,3.10
2023-03-16T06:06:55.750Z,3.83
2023-03-16T06:12:04.096Z,3.37
2023-03-16T06:17:08.296Z,3.20
2023-03-16T06:22:13.320Z,3.20
2023-03-16T06:27:16.703Z,3.20
2023-03-16T06:32:34.471Z,3.17
2023-03-16T06:37:39.116Z,2.97
2023-03-16T06:42:57.238Z,2.80
2023-03-16T06:48:01.095Z,2.57
2023-03-16T06:53:06.160Z,2.57
2023-03-16T06:58:11.849Z,2.67
2023-03-16T07:03:15.105Z,2.83
2023-03-16T07:08:25.829Z,2.87
2023-03-16T07:13:29.218Z,3.70
2023-03-16T07:18:32.934Z,2.67
2023-03-16T07:23:40.662Z,2.70
2023-03-16T07:28:45.529Z,2.67
2023-03-16T07:33:49.080Z,2.60
2023-03-16T07:39:02.597Z,2.80
2023-03-16T07:44:05.875Z,2.90
2023-03-16T07:49:09.804Z,2.80
2023-03-16T07:54:16.186Z,2.07
2023-03-16T07:59:21.165Z,2.43
2023-03-16T08:04:24.492Z,2.40
2023-03-16T08:09:30.437Z,2.30
2023-03-16T08:14:36.212Z,2.10
2023-03-16T08:19:49.059Z,2.53
2023-03-16T08:25:16.725Z,2.50
2023-03-16T08:30:32.651Z,2.73
2023-03-16T08:35:52.215Z,2.83
2023-03-16T08:40:57.386Z,2.67
2023-03-16T08:46:01.762Z,2.90
2023-03-16T08:51:14.649Z,2.40
2023-03-16T08:56:19.716Z,2.70
2023-03-16T09:01:23.876Z,2.40
2023-03-16T09:06:26.949Z,2.80
2023-03-16T09:11:33.810Z,3.20
2023-03-16T09:16:38.589Z,2.50
2023-03-16T09:21:41.794Z,2.60
2023-03-16T09:26:46.306Z,2.50
2023-03-16T09:31:51.596Z,2.43
2023-03-16T09:36:55.422Z,2.60
2023-03-16T09:42:07.876Z,2.20
2023-03-16T09:47:17.114Z,1.80
2023-03-16T09:52:30.800Z,2.03
2023-03-16T09:57:44.156Z,1.40
2023-03-16T10:03:08.311Z,2.00
2023-03-16T10:08:18.685Z,1.70
2023-03-16T10:13:34.206Z,1.57
2023-03-16T10:18:42.673Z,1.60
2023-03-16T10:23:50.945Z,1.90
2023-03-16T10:28:55.562Z,1.73
2023-03-16T10:34:06.691Z,1.40
2023-03-16T10:39:12.148Z,1.43
2023-03-16T10:44:18.459Z,1.50
2023-03-16T10:49:25.803Z,1.80
2023-03-16T10:54:32.687Z,1.60
2023-03-16T10:59:38.562Z,1.20
2023-03-16T11:04:42.008Z,1.47
2023-03-16T11:09:45.340Z,1.43
2023-03-16T11:14:50.586Z,1.40
2023-03-16T11:19:55.808Z,1.90
2023-03-16T11:25:06.587Z,1.60
2023-03-16T11:30:18.070Z,1.77
2023-03-16T11:35:25.893Z,1.40
2023-03-16T11:40:41.192Z,1.80
2023-03-16T11:45:53.527Z,1.47
2023-03-16T11:51:06.440Z,1.33
2023-03-16T11:56:17.351Z,1.60
2023-03-16T12:01:29.722Z,1.67
2023-03-16T12:06:50.630Z,1.40
2023-03-16T12:11:58.028Z,1.13
2023-03-16T12:17:08.493Z,1.50
2023-03-16T12:22:18.608Z,1.30
2023-03-16T12:27:26.140Z,1.20
2023-03-16T12:32:42.912Z,1.10
2023-03-16T12:37:55.226Z,1.20
2023-03-16T12:43:11.803Z,1.30
2023-03-16T12:48:27.211Z,1.03
2023-03-16T12:53:42.448Z,1.30
2023-03-16T12:58:50.865Z,1.50
2023-03-16T13:04:02.525Z,1.17
2023-03-16T13:09:07.799Z,1.00
2023-03-16T13:14:14.338Z,1.30
2023-03-16T13:19:28.571Z,1.37
2023-03-16T13:24:40.075Z,1.10
2023-03-16T13:29:54.452Z,1.27
2023-03-16T13:35:01.309Z,1.20
2023-03-16T13:40:05.621Z,1.20
2023-03-16T13:45:18.989Z,1.10
2023-03-16T13:50:23.842Z,1.43
2023-03-16T13:55:33.298Z,1.40
2023-03-16T14:00:42.095Z,1.13
2023-03-16T14:05:47.604Z,1.10
2023-03-16T14:11:00.932Z,1.17
2023-03-16T14:16:09.795Z,1.00
2023-03-16T14:21:18.892Z,1.10
2023-03-16T14:26:22.166Z,1.00
2023-03-16T14:31:33.998Z,1.23
2023-03-16T14:36:40.501Z,1.50
2023-03-16T14:41:45.449Z,1.30
2023-03-16T14:46:49.966Z,0.90
2023-03-16T14:51:56.737Z,1.40
2023-03-16T14:57:05.097Z,1.13
2023-03-16T15:02:17.645Z,1.43
2023-03-16T15:07:26.875Z,1.13
2023-03-16T15:12:33.888Z,1.30
2023-03-16T15:17:37.282Z,1.20
2023-03-16T15:22:47.814Z,0.93
2023-03-16T15:27:55.311Z,0.90
2023-03-16T15:32:58.553Z,0.90
2023-03-16T15:38:12.813Z,1.00
2023-03-16T15:43:17.973Z,1.10
2023-03-16T15:48:24.583Z,1.10
2023-03-16T15:53:40.070Z,1.10
2023-03-16T15:58:46.322Z,1.00
2023-03-16T16:03:56.072Z,1.30
2023-03-16T16:09:01.163Z,1.00
2023-03-16T16:14:05.190Z,1.10
2023-03-16T16:19:13.933Z,1.43
2023-03-16T16:24:19.340Z,1.30
2023-03-16T16:29:24.258Z,1.00
2023-03-16T16:34:28.255Z,1.40
2023-03-16T16:39:32.824Z,1.10
2023-03-16T16:44:38.067Z,1.43
2023-03-16T16:49:41.429Z,1.37
2023-03-16T16:54:46.587Z,1.10
2023-03-16T16:59:50.395Z,1.07
2023-03-16T17:04:53.774Z,0.90
2023-03-16T17:09:58.425Z,1.10
2023-03-16T17:15:01.672Z,1.20
2023-03-16T17:20:06.270Z,2.00
2023-03-16T17:25:11.359Z,1.30
2023-03-16T17:30:23.485Z,1.23
2023-03-16T17:35:27.202Z,1.17
2023-03-16T17:40:33.776Z,1.00
2023-03-16T17:45:37.184Z,0.93
2023-03-16T17:50:40.734Z,0.90
2023-03-16T17:55:46.771Z,0.90
2023-03-16T18:00:53.044Z,1.23
2023-03-16T18:05:56.385Z,0.80
2023-03-16T18:11:05.582Z,1.93
2023-03-16T18:16:17.640Z,2.43
2023-03-16T18:21:23.240Z,1.07
2023-03-16T18:26:38.420Z,1.10
2023-03-16T18:31:44.019Z,1.03
2023-03-16T18:36:49.990Z,1.93
2023-03-16T18:42:03.384Z,1.83
2023-03-16T18:47:06.830Z,1.57
2023-03-16T18:52:17.444Z,1.47
2023-03-16T18:57:24.322Z,1.23
2023-03-16T19:02:30.509Z,1.20
2023-03-16T19:07:36.017Z,1.53
2023-03-16T19:12:40.609Z,1.60
2023-03-16T19:17:43.832Z,1.40
2023-03-16T19:22:49.510Z,1.30
2023-03-16T19:27:55.113Z,1.33
2023-03-16T19:32:58.850Z,1.63
2023-03-16T19:38:02.214Z,1.70
2023-03-16T19:43:08.941Z,2.00
2023-03-16T19:48:15.318Z,2.43
2023-03-16T19:53:20.816Z,1.87
2023-03-16T19:58:31.511Z,2.00
2023-03-16T20:03:38.710Z,1.90
2023-03-16T20:08:42.288Z,1.83
2023-03-16T20:13:50.450Z,1.57
2023-03-16T20:18:56.148Z,1.83
2023-03-16T20:24:03.588Z,1.30
2023-03-16T20:29:18.164Z,1.77
2023-03-16T20:34:24.630Z,2.17
2023-03-16T20:39:27.952Z,1.80
2023-03-16T20:44:32.601Z,1.90
2023-03-16T20:49:35.766Z,1.63
2023-03-16T20:54:39.085Z,1.67
2023-03-16T20:59:44.141Z,1.93
2023-03-16T21:04:47.398Z,1.73
2023-03-16T21:09:51.811Z,1.80
2023-03-16T21:14:57.403Z,1.90
2023-03-16T21:20:01.506Z,1.80
2023-03-16T21:25:16.409Z,1.73
2023-03-16T21:30:34.039Z,1.80
2023-03-16T21:35:38.324Z,1.80
2023-03-16T21:40:41.590Z,2.00
2023-03-16T21:45:47.888Z,1.80
2023-03-16T21:50:54.036Z,2.10
2023-03-16T21:56:01.036Z,1.70
2023-03-16T22:01:05.813Z,1.60
2023-03-16T22:06:13.563Z,1.90
2023-03-16T22:11:19.177Z,2.20
2023-03-16T22:16:25.938Z,1.90
2023-03-16T22:21:33.671Z,2.30
2023-03-16T22:26:37.494Z,1.97
2023-03-16T22:31:42.563Z,1.90
2023-03-16T22:36:45.612Z,1.90
2023-03-16T22:41:50.057Z,2.40
2023-03-16T22:46:54.935Z,2.13
2023-03-16T22:51:58.977Z,2.20
2023-03-16T22:57:02.658Z,2.10
2023-03-16T23:02:07.708Z,2.23
2023-03-16T23:07:13.302Z,2.13
2023-03-16T23:12:20.732Z,2.00
2023-03-16T23:17:25.528Z,2.20
2023-03-16T23:22:28.602Z,2.13
2023-03-16T23:27:31.679Z,2.07
2023-03-16T23:32:36.121Z,2.13
2023-03-16T23:37:39.369Z,2.50
2023-03-16T23:42:44.358Z,2.33
2023-03-16T23:47:52.579Z,2.27
2023-03-16T23:52:56.296Z,2.10
2023-03-16T23:57:59.400Z,1.87
